createdAt,value
2022-09-10T00:01:59.434Z,100498.41
2022-09-10T00:04:27.966Z,100492.81
2022-09-10T00:06:55.599Z,100493.28
2022-09-10T00:09:22.861Z,100493.53
2022-09-10T00:11:50.075Z,100490.19
2022-09-10T00:14:18.782Z,100498.78
2022-09-10T00:16:46.164Z,100488.75
2022-09-10T00:19:13.571Z,100485.88
2022-09-10T00:21:40.787Z,100483.69
2022-09-10T00:24:07.913Z,100490.88
2022-09-10T00:26:38.251Z,100496.41
2022-09-10T00:29:06.615Z,100496.28
2022-09-10T00:31:34.384Z,100492.81
2022-09-10T00:34:02.203Z,100490.88
2022-09-10T00:36:35.855Z,100487.06
2022-09-10T00:39:04.861Z,100471.03
2022-09-10T00:41:33.919Z,100477.22
2022-09-10T00:44:02.495Z,100479.84
2022-09-10T00:46:33.514Z,100483.47
2022-09-10T00:49:02.499Z,100504.53
2022-09-10T00:51:32.134Z,100521.03
2022-09-10T00:54:00.369Z,100547.63
2022-09-10T00:56:28.290Z,100554.06
2022-09-10T00:58:55.722Z,100563.19
2022-09-10T01:01:23.164Z,100567.25
2022-09-10T01:03:50.600Z,100555.75
2022-09-10T01:06:18.426Z,100536.34
2022-09-10T01:08:45.502Z,100541.41
2022-09-10T01:11:21.610Z,100539.22
2022-09-10T01:14:07.786Z,100553.59
2022-09-10T01:16:48.476Z,100574.53
2022-09-10T01:19:24.950Z,100602.63
2022-09-10T01:21:58.453Z,100578.22
2022-09-10T01:24:43.970Z,100609.25
2022-09-10T01:27:30.122Z,100631.97
2022-09-10T01:30:06.832Z,100637.88
2022-09-10T01:32:44.459Z,100614.94
2022-09-10T01:35:11.595Z,100614.75
2022-09-10T01:37:40.358Z,100571.38
2022-09-10T01:40:08.380Z,100583.53
2022-09-10T01:42:37.821Z,100599.97
2022-09-10T01:45:05.431Z,100554.09
2022-09-10T01:47:34.105Z,100528.94
2022-09-10T01:50:11.435Z,100552.75
2022-09-10T01:52:48.012Z,100569.47
2022-09-10T01:55:30.500Z,100578.81
2022-09-10T01:58:17.084Z,100543.25
2022-09-10T02:00:58.618Z,100519.88
2022-09-10T02:03:27.277Z,100511.03
2022-09-10T02:05:56.353Z,100504.84
2022-09-10T02:08:31.568Z,100477.56
2022-09-10T02:11:06.289Z,100455.72
2022-09-10T02:13:36.704Z,100447.72
2022-09-10T02:16:33.433Z,100453.44
2022-09-10T02:19:01.835Z,100457.97
2022-09-10T02:21:31.957Z,100467.28
2022-09-10T02:24:02.188Z,100465.41
2022-09-10T02:26:29.447Z,100468.72
2022-09-10T02:28:56.718Z,100461.44
2022-09-10T02:31:24.009Z,100461.38
2022-09-10T02:33:51.286Z,100453.56
2022-09-10T02:36:18.463Z,100458.47
2022-09-10T02:38:46.087Z,100455.84
2022-09-10T02:41:15.453Z,100457.84
2022-09-10T02:43:42.909Z,100454.94
2022-09-10T02:46:10.477Z,100439.47
2022-09-10T02:48:39.925Z,100437.13
2022-09-10T02:51:08.361Z,100438.81
2022-09-10T02:53:37.010Z,100441.69
2022-09-10T02:56:05.369Z,100437.59
2022-09-10T02:58:33.001Z,100433.41
2022-09-10T03:01:06.371Z,100440.34
2022-09-10T03:03:33.724Z,100441.06
2022-09-10T03:06:00.801Z,100449.84
2022-09-10T03:08:27.851Z,100448.94
2022-09-10T03:10:55.809Z,100446.09
2022-09-10T03:13:22.809Z,100453.56
2022-09-10T03:15:50.183Z,100456.75
2022-09-10T03:18:18.069Z,100444.00
2022-09-10T03:20:46.022Z,100455.72
2022-09-10T03:23:13.160Z,100467.50
2022-09-10T03:25:40.464Z,100465.19
2022-09-10T03:28:07.560Z,100466.44
2022-09-10T03:30:36.572Z,100468.34
2022-09-10T03:33:04.450Z,100477.38
2022-09-10T03:35:31.681Z,100474.41
2022-09-10T03:38:02.358Z,100479.66
2022-09-10T03:40:29.642Z,100478.63
2022-09-10T03:42:56.714Z,100486.38
2022-09-10T03:45:24.012Z,100482.38
2022-09-10T03:47:51.937Z,100498.13
2022-09-10T03:50:19.678Z,100497.31
2022-09-10T03:52:47.143Z,100508.84
2022-09-10T03:55:14.311Z,100517.38
2022-09-10T03:57:42.134Z,100518.09
2022-09-10T04:00:12.094Z,100520.38
2022-09-10T04:02:42.176Z,100515.13
2022-09-10T04:05:10.662Z,100523.75
2022-09-10T04:07:37.897Z,100510.53
2022-09-10T04:10:05.495Z,100528.78
2022-09-10T04:12:32.567Z,100539.06
2022-09-10T04:15:01.856Z,100545.38
2022-09-10T04:17:29.011Z,100549.78
2022-09-10T04:19:56.025Z,100558.06
2022-09-10T04:22:23.203Z,100555.59
2022-09-10T04:24:50.453Z,100550.25
2022-09-10T04:27:17.537Z,100558.22
2022-09-10T04:29:44.839Z,100560.13
2022-09-10T04:32:12.314Z,100563.38
2022-09-10T04:34:39.418Z,100563.38
2022-09-10T04:37:06.936Z,100557.09
2022-09-10T04:39:34.702Z,100556.28
2022-09-10T04:42:02.182Z,100556.06
2022-09-10T04:44:29.600Z,100556.50
2022-09-10T04:46:57.170Z,100567.59
2022-09-10T04:49:25.217Z,100563.22
2022-09-10T04:51:53.333Z,100562.16
2022-09-10T04:54:20.390Z,100575.69
2022-09-10T04:56:47.706Z,100569.59
2022-09-10T04:59:14.911Z,100571.75
2022-09-10T05:01:44.242Z,100572.81
2022-09-10T05:04:11.460Z,100574.47
2022-09-10T05:06:38.881Z,100593.19
2022-09-10T05:09:09.130Z,100586.03
2022-09-10T05:11:37.257Z,100578.91
2022-09-10T05:14:04.858Z,100586.47
2022-09-10T05:16:32.623Z,100580.81
2022-09-10T05:18:59.748Z,100594.38
2022-09-10T05:21:29.115Z,100589.00
2022-09-10T05:23:56.227Z,100591.72
2022-09-10T05:26:24.673Z,100586.78
2022-09-10T05:28:55.560Z,100596.94
2022-09-10T05:31:23.031Z,100598.50
2022-09-10T05:33:50.065Z,100597.97
2022-09-10T05:36:17.691Z,100600.94
2022-09-10T05:38:45.772Z,100604.25
2022-09-10T05:41:13.537Z,100605.13
2022-09-10T05:43:45.142Z,100604.69
2022-09-10T05:46:13.012Z,100610.66
2022-09-10T05:48:43.179Z,100617.94
2022-09-10T05:51:11.864Z,100620.56
2022-09-10T05:53:41.673Z,100617.94
2022-09-10T05:56:09.053Z,100627.22
2022-09-10T05:58:37.277Z,100629.84
2022-09-10T06:01:06.667Z,100635.59
2022-09-10T06:03:34.214Z,100644.94
2022-09-10T06:06:02.317Z,100643.09
2022-09-10T06:08:33.426Z,100648.44
2022-09-10T06:11:06.502Z,100653.91
2022-09-10T06:13:42.185Z,100656.34
2022-09-10T06:16:09.736Z,100656.56
2022-09-10T06:18:37.463Z,100660.22
2022-09-10T06:21:08.845Z,100650.03
2022-09-10T06:23:42.278Z,100654.34
2022-09-10T06:26:11.834Z,100655.44
2022-09-10T06:28:39.445Z,100660.03
2022-09-10T06:31:08.033Z,100662.97
2022-09-10T06:33:37.113Z,100655.06
2022-09-10T06:36:05.450Z,100662.19
2022-09-10T06:38:36.785Z,100661.75
2022-09-10T06:41:07.871Z,100665.63
2022-09-10T06:43:41.368Z,100667.84
2022-09-10T06:46:50.797Z,100656.91
2022-09-10T06:49:14.930Z,100656.69
2022-09-10T06:51:46.768Z,100651.19
2022-09-10T06:54:14.969Z,100653.31
2022-09-10T06:56:42.750Z,100653.34
2022-09-10T06:59:10.088Z,100657.06
2022-09-10T07:01:43.750Z,100653.59
2022-09-10T07:04:11.346Z,100645.25
2022-09-10T07:06:38.874Z,100646.69
2022-09-10T07:09:10.402Z,100650.56
2022-09-10T07:11:46.121Z,100644.34
2022-09-10T07:14:14.783Z,100646.41
2022-09-10T07:16:42.092Z,100648.66
2022-09-10T07:19:10.957Z,100648.44
2022-09-10T07:21:42.722Z,100648.94
2022-09-10T07:24:14.019Z,100656.81
2022-09-10T07:26:48.614Z,100656.16
2022-09-10T07:29:18.178Z,100657.69
2022-09-10T07:31:47.233Z,100647.63
2022-09-10T07:34:20.488Z,100647.06
2022-09-10T07:36:47.701Z,100645.06
2022-09-10T07:39:15.541Z,100644.88
2022-09-10T07:41:43.414Z,100640.38
2022-09-10T07:44:13.478Z,100637.75
2022-09-10T07:46:43.831Z,100642.19
2022-09-10T07:49:13.755Z,100644.50
2022-09-10T07:51:44.699Z,100642.06
2022-09-10T07:54:16.011Z,100647.59
2022-09-10T07:56:48.172Z,100651.53
2022-09-10T07:59:16.639Z,100647.16
2022-09-10T08:01:53.540Z,100649.38
2022-09-10T08:04:21.425Z,100655.81
2022-09-10T08:06:48.636Z,100647.56
2022-09-10T08:09:17.846Z,100651.47
2022-09-10T08:11:51.631Z,100650.75
2022-09-10T08:14:21.566Z,100657.44
2022-09-10T08:16:52.522Z,100649.63
2022-09-10T08:19:21.264Z,100662.44
2022-09-10T08:21:48.852Z,100656.28
2022-09-10T08:24:22.982Z,100655.22
2022-09-10T08:26:51.282Z,100661.81
2022-09-10T08:29:19.351Z,100662.41
2022-09-10T08:31:47.497Z,100664.97
2022-09-10T08:34:28.865Z,100659.06
2022-09-10T08:37:08.103Z,100670.28
2022-09-10T08:39:36.830Z,100672.91
2022-09-10T08:42:19.272Z,100663.22
2022-09-10T08:45:16.501Z,100671.25
2022-09-10T08:47:49.218Z,100667.78
2022-09-10T08:50:16.499Z,100671.50
2022-09-10T08:52:48.722Z,100667.25
2022-09-10T08:55:25.385Z,100670.50
2022-09-10T08:57:52.972Z,100677.75
2022-09-10T09:00:23.253Z,100675.78
2022-09-10T09:03:10.052Z,100677.75
2022-09-10T09:05:44.874Z,100677.75
2022-09-10T09:08:13.795Z,100673.72
2022-09-10T09:10:59.450Z,100666.31
2022-09-10T09:13:35.990Z,100669.19
2022-09-10T09:16:09.720Z,100664.19
2022-09-10T09:19:02.231Z,100666.81
2022-09-10T09:22:08.747Z,100655.97
2022-09-10T09:24:54.887Z,100663.09
2022-09-10T09:27:22.477Z,100675.94
2022-09-10T09:29:57.191Z,100667.56
2022-09-10T09:32:25.547Z,100663.91
2022-09-10T09:34:57.079Z,100657.63
2022-09-10T09:37:31.224Z,100658.91
2022-09-10T09:40:16.625Z,100652.13
2022-09-10T09:42:48.314Z,100657.94
2022-09-10T09:45:21.549Z,100651.97
2022-09-10T09:47:50.826Z,100649.31
2022-09-10T09:50:20.967Z,100649.72
2022-09-10T09:52:48.159Z,100637.41
2022-09-10T09:55:35.440Z,100639.22
2022-09-10T09:58:20.977Z,100638.41
2022-09-10T10:00:48.102Z,100648.03
2022-09-10T10:03:22.166Z,100639.72
2022-09-10T10:05:49.298Z,100637.38
2022-09-10T10:08:30.768Z,100632.41
2022-09-10T10:10:58.490Z,100633.22
2022-09-10T10:13:37.363Z,100629.22
2022-09-10T10:16:36.903Z,100627.41
2022-09-10T10:19:31.165Z,100636.72
2022-09-10T10:22:20.368Z,100627.38
2022-09-10T10:24:50.171Z,100623.03
2022-09-10T10:27:25.338Z,100624.38
2022-09-10T10:29:55.550Z,100622.69
2022-09-10T10:32:39.516Z,100618.38
2022-09-10T10:35:23.287Z,100610.34
2022-09-10T10:37:50.562Z,100606.19
2022-09-10T10:40:44.002Z,100605.03
2022-09-10T10:43:28.700Z,100598.25
2022-09-10T10:46:14.623Z,100593.75
2022-09-10T10:48:52.614Z,100589.06
2022-09-10T10:51:32.018Z,100584.75
2022-09-10T10:54:05.911Z,100583.69
2022-09-10T10:56:37.689Z,100575.94
2022-09-10T10:59:26.636Z,100573.53
2022-09-10T11:01:56.893Z,100579.69
2022-09-10T11:04:27.994Z,100565.75
2022-09-10T11:06:58.595Z,100573.00
2022-09-10T11:09:41.008Z,100568.63
2022-09-10T11:12:15.605Z,100570.91
2022-09-10T11:14:56.562Z,100577.88
2022-09-10T11:17:23.763Z,100577.81
2022-09-10T11:20:27.284Z,100573.53
2022-09-10T11:22:59.817Z,100573.81
2022-09-10T11:25:47.130Z,100568.19
2022-09-10T11:28:16.273Z,100569.28
2022-09-10T11:30:51.466Z,100560.22
2022-09-10T11:33:25.115Z,100557.00
2022-09-10T11:36:05.141Z,100559.34
2022-09-10T11:38:45.102Z,100551.88
2022-09-10T11:41:28.188Z,100549.38
2022-09-10T11:43:58.427Z,100557.09
2022-09-10T11:46:34.502Z,100541.59
2022-09-10T11:49:15.647Z,100539.75
2022-09-10T11:51:45.428Z,100543.28
2022-09-10T11:54:16.723Z,100540.25
2022-09-10T11:56:50.468Z,100531.25
2022-09-10T11:59:39.129Z,100539.47
2022-09-10T12:02:34.560Z,100538.31
2022-09-10T12:05:11.202Z,100534.44
2022-09-10T12:08:05.743Z,100530.41
2022-09-10T12:10:53.339Z,100518.09
2022-09-10T12:13:21.711Z,100511.91
2022-09-10T12:15:57.238Z,100514.50
2022-09-10T12:18:42.889Z,100501.47
2022-09-10T12:21:27.952Z,100500.16
2022-09-10T12:23:56.927Z,100506.06
2022-09-10T12:26:24.762Z,100502.03
2022-09-10T12:28:51.978Z,100502.81
2022-09-10T12:31:22.765Z,100499.22
2022-09-10T12:33:51.102Z,100490.78
2022-09-10T12:36:27.455Z,100497.91
2022-09-10T12:39:24.369Z,100491.53
2022-09-10T12:41:58.270Z,100494.91
2022-09-10T12:44:25.484Z,100480.81
2022-09-10T12:47:17.507Z,100472.34
2022-09-10T12:49:58.381Z,100472.63
2022-09-10T12:52:34.889Z,100470.78
2022-09-10T12:55:28.914Z,100464.59
2022-09-10T12:58:15.030Z,100466.81
2022-09-10T13:00:42.166Z,100464.53
2022-09-10T13:03:15.404Z,100462.97
2022-09-10T13:05:46.628Z,100461.03
2022-09-10T13:08:44.464Z,100459.28
2022-09-10T13:11:23.805Z,100462.03
2022-09-10T13:13:56.516Z,100455.31
2022-09-10T13:16:27.320Z,100452.00
2022-09-10T13:19:19.343Z,100449.41
2022-09-10T13:21:48.060Z,100448.13
2022-09-10T13:24:34.294Z,100431.59
2022-09-10T13:27:39.802Z,100435.84
2022-09-10T13:30:19.323Z,100432.63
2022-09-10T13:33:22.137Z,100431.50
2022-09-10T13:36:10.585Z,100429.72
2022-09-10T13:38:37.780Z,100424.91
2022-09-10T13:41:33.377Z,100419.47
2022-09-10T13:44:21.284Z,100423.03
2022-09-10T13:46:55.488Z,100412.56
2022-09-10T13:49:37.719Z,100410.38
2022-09-10T13:52:13.232Z,100407.81
2022-09-10T13:54:46.647Z,100405.00
2022-09-10T13:57:31.357Z,100404.22
2022-09-10T14:00:26.614Z,100397.97
2022-09-10T14:02:59.759Z,100399.19
2022-09-10T14:05:36.392Z,100399.63
2022-09-10T14:08:18.050Z,100398.97
2022-09-10T14:11:03.701Z,100391.13
2022-09-10T14:13:34.982Z,100395.53
2022-09-10T14:16:05.643Z,100386.50
2022-09-10T14:18:43.955Z,100382.09
2022-09-10T14:21:14.040Z,100386.78
2022-09-10T14:23:46.479Z,100378.84
2022-09-10T14:26:19.950Z,100378.19
2022-09-10T14:28:51.799Z,100372.09
2022-09-10T14:31:23.536Z,100375.84
2022-09-10T14:33:51.652Z,100367.03
2022-09-10T14:36:28.596Z,100371.03
2022-09-10T14:39:02.333Z,100356.69
2022-09-10T14:41:32.407Z,100354.44
2022-09-10T14:44:56.164Z,100355.00
2022-09-10T14:47:29.735Z,100353.19
2022-09-10T14:50:25.167Z,100352.47
2022-09-10T14:52:52.511Z,100353.56
2022-09-10T14:55:20.088Z,100349.84
2022-09-10T14:57:47.453Z,100350.09
2022-09-10T15:00:15.217Z,100344.22
2022-09-10T15:02:42.709Z,100348.63
2022-09-10T15:05:17.426Z,100348.22
2022-09-10T15:07:45.303Z,100349.56
2022-09-10T15:10:12.615Z,100345.84
2022-09-10T15:12:43.375Z,100348.59
2022-09-10T15:15:17.179Z,100352.78
2022-09-10T15:17:45.268Z,100360.97
2022-09-10T15:20:18.903Z,100351.13
2022-09-10T15:22:46.268Z,100354.34
2022-09-10T15:25:28.997Z,100356.34
2022-09-10T15:27:56.413Z,100350.09
2022-09-10T15:30:24.810Z,100350.19
2022-09-10T15:32:54.314Z,100346.94
2022-09-10T15:35:23.308Z,100352.00
2022-09-10T15:37:51.273Z,100354.69
2022-09-10T15:40:18.602Z,100350.09
2022-09-10T15:42:46.942Z,100351.16
2022-09-10T15:45:14.530Z,100349.53
2022-09-10T15:47:42.371Z,100355.78
2022-09-10T15:50:11.755Z,100356.91
2022-09-10T15:52:39.186Z,100352.09
2022-09-10T15:55:07.070Z,100345.66
2022-09-10T15:57:35.927Z,100364.44
2022-09-10T16:00:04.758Z,100357.59
2022-09-10T16:02:32.872Z,100363.41
2022-09-10T16:05:01.177Z,100364.84
2022-09-10T16:07:29.375Z,100363.47
2022-09-10T16:09:58.783Z,100360.59
2022-09-10T16:12:27.310Z,100361.16
2022-09-10T16:14:55.407Z,100368.53
2022-09-10T16:17:22.757Z,100371.25
2022-09-10T16:19:51.514Z,100364.03
2022-09-10T16:22:20.801Z,100373.84
2022-09-10T16:24:48.325Z,100368.75
2022-09-10T16:27:17.453Z,100369.41
2022-09-10T16:29:46.345Z,100371.13
2022-09-10T16:32:13.950Z,100370.41
2022-09-10T16:34:41.505Z,100363.91
2022-09-10T16:37:08.887Z,100372.31
2022-09-10T16:39:36.383Z,100373.84
2022-09-10T16:42:03.838Z,100374.34
2022-09-10T16:44:32.271Z,100374.34
2022-09-10T16:47:00.326Z,100373.56
2022-09-10T16:49:27.758Z,100375.09
2022-09-10T16:51:55.104Z,100371.72
2022-09-10T16:54:22.977Z,100376.25
2022-09-10T16:56:51.058Z,100382.81
2022-09-10T16:59:23.419Z,100376.53
2022-09-10T17:01:52.484Z,100372.47
2022-09-10T17:04:29.226Z,100374.13
2022-09-10T17:06:57.945Z,100374.19
2022-09-10T17:09:25.425Z,100380.94
2022-09-10T17:11:52.703Z,100380.47
2022-09-10T17:14:20.107Z,100373.78
2022-09-10T17:16:48.481Z,100376.69
2022-09-10T17:19:17.617Z,100387.25
2022-09-10T17:21:47.308Z,100385.47
2022-09-10T17:24:14.557Z,100384.84
2022-09-10T17:26:42.245Z,100386.22
2022-09-10T17:29:10.978Z,100386.03
2022-09-10T17:31:39.465Z,100381.13
2022-09-10T17:34:07.976Z,100387.91
2022-09-10T17:36:36.710Z,100384.59
2022-09-10T17:39:04.276Z,100391.34
2022-09-10T17:41:31.984Z,100387.91
2022-09-10T17:44:00.083Z,100386.13
2022-09-10T17:46:27.556Z,100391.84
2022-09-10T17:48:54.995Z,100398.63
2022-09-10T17:51:23.748Z,100403.59
2022-09-10T17:53:51.813Z,100402.84
2022-09-10T17:56:19.388Z,100403.59
2022-09-10T17:58:47.312Z,100401.16
2022-09-10T18:01:23.645Z,100407.38
2022-09-10T18:03:52.269Z,100412.97
2022-09-10T18:06:21.452Z,100412.44
2022-09-10T18:08:50.436Z,100413.06
2022-09-10T18:11:23.363Z,100420.63
2022-09-10T18:13:52.849Z,100423.97
2022-09-10T18:16:23.699Z,100426.47
2022-09-10T18:18:59.362Z,100426.84
2022-09-10T18:21:31.085Z,100428.63
2022-09-10T18:24:01.534Z,100442.00
2022-09-10T18:26:34.738Z,100438.44
2022-09-10T18:29:06.494Z,100445.72
2022-09-10T18:31:37.241Z,100441.03
2022-09-10T18:34:08.271Z,100446.88
2022-09-10T18:36:35.718Z,100445.19
2022-09-10T18:39:10.582Z,100456.19
2022-09-10T18:41:39.700Z,100458.78
2022-09-10T18:44:12.000Z,100461.00
2022-09-10T18:46:39.366Z,100468.06
2022-09-10T18:49:07.277Z,100471.00
2022-09-10T18:51:35.689Z,100477.56
2022-09-10T18:54:04.027Z,100480.47
2022-09-10T18:56:32.113Z,100480.72
2022-09-10T18:59:07.196Z,100479.09
2022-09-10T19:01:37.492Z,100486.09
2022-09-10T19:04:10.029Z,100486.38
2022-09-10T19:06:40.329Z,100493.63
2022-09-10T19:09:10.966Z,100493.91
2022-09-10T19:11:41.043Z,100499.22
2022-09-10T19:14:22.677Z,100504.78
2022-09-10T19:16:51.104Z,100508.81
2022-09-10T19:19:22.185Z,100511.47
2022-09-10T19:21:53.039Z,100502.81
2022-09-10T19:24:32.961Z,100501.47
2022-09-10T19:27:08.185Z,100506.75
2022-09-10T19:29:35.439Z,100510.38
2022-09-10T19:32:03.331Z,100516.50
2022-09-10T19:34:31.018Z,100512.59
2022-09-10T19:36:58.240Z,100512.59
2022-09-10T19:39:25.642Z,100517.31
2022-09-10T19:41:52.956Z,100510.94
2022-09-10T19:44:21.804Z,100512.59
2022-09-10T19:46:50.175Z,100515.66
2022-09-10T19:49:18.521Z,100519.28
2022-09-10T19:51:47.053Z,100520.66
2022-09-10T19:54:14.459Z,100512.19
2022-09-10T19:56:42.608Z,100516.75
2022-09-10T19:59:11.074Z,100516.22
2022-09-10T20:01:42.122Z,100523.16
2022-09-10T20:04:12.800Z,100528.19
2022-09-10T20:06:41.163Z,100524.22
2022-09-10T20:09:10.231Z,100522.22
2022-09-10T20:11:38.580Z,100524.69
2022-09-10T20:14:10.539Z,100526.38
2022-09-10T20:16:44.032Z,100526.09
2022-09-10T20:19:14.700Z,100534.38
2022-09-10T20:21:42.416Z,100521.59
2022-09-10T20:24:10.700Z,100528.84
2022-09-10T20:26:41.025Z,100531.28
2022-09-10T20:29:12.369Z,100530.16
2022-09-10T20:31:41.200Z,100523.47
2022-09-10T20:34:15.492Z,100521.81
2022-09-10T20:36:43.144Z,100526.09
2022-09-10T20:39:13.697Z,100511.75
2022-09-10T20:41:41.351Z,100518.19
2022-09-10T20:44:09.767Z,100518.81
2022-09-10T20:46:37.913Z,100517.31
2022-09-10T20:49:05.086Z,100515.63
2022-09-10T20:51:34.374Z,100514.94
2022-09-10T20:54:01.982Z,100518.94
2022-09-10T20:56:29.171Z,100524.53
2022-09-10T20:58:56.791Z,100532.28
2022-09-10T21:01:24.995Z,100525.31
2022-09-10T21:03:56.090Z,100538.06
2022-09-10T21:06:26.758Z,100536.13
2022-09-10T21:08:56.919Z,100531.13
2022-09-10T21:11:25.399Z,100545.28
2022-09-10T21:13:57.027Z,100546.38
2022-09-10T21:16:26.944Z,100548.00
2022-09-10T21:18:55.526Z,100547.06
2022-09-10T21:21:25.769Z,100548.34
2022-09-10T21:23:54.704Z,100556.03
2022-09-10T21:26:23.312Z,100557.97
2022-09-10T21:28:52.344Z,100550.69
2022-09-10T21:31:19.770Z,100564.78
2022-09-10T21:33:47.133Z,100551.44
2022-09-10T21:36:19.288Z,100560.88
2022-09-10T21:38:57.202Z,100557.97
2022-09-10T21:41:31.790Z,100558.22
2022-09-10T21:44:04.534Z,100563.47
2022-09-10T21:46:32.477Z,100571.88
2022-09-10T21:49:00.542Z,100579.25
2022-09-10T21:51:28.348Z,100579.09
2022-09-10T21:53:56.916Z,100567.88
2022-09-10T21:56:26.896Z,100563.94
2022-09-10T21:58:56.677Z,100571.66
2022-09-10T22:01:26.940Z,100566.03
2022-09-10T22:03:57.342Z,100573.13
2022-09-10T22:06:30.141Z,100580.50
2022-09-10T22:09:01.032Z,100577.59
2022-09-10T22:11:50.115Z,100575.88
2022-09-10T22:14:22.850Z,100578.06
2022-09-10T22:16:52.553Z,100586.69
2022-09-10T22:19:25.103Z,100587.44
2022-09-10T22:21:54.288Z,100586.88
2022-09-10T22:24:22.173Z,100589.38
2022-09-10T22:26:49.562Z,100589.03
2022-09-10T22:29:19.293Z,100593.00
2022-09-10T22:31:47.835Z,100591.84
2022-09-10T22:34:17.470Z,100596.16
2022-09-10T22:36:46.429Z,100596.63
2022-09-10T22:39:16.530Z,100597.81
2022-09-10T22:41:45.103Z,100607.84
2022-09-10T22:44:13.549Z,100608.09
2022-09-10T22:46:41.720Z,100615.19
2022-09-10T22:49:10.006Z,100615.06
2022-09-10T22:51:41.056Z,100612.63
2022-09-10T22:54:10.652Z,100608.50
2022-09-10T22:56:38.440Z,100614.66
2022-09-10T22:59:06.767Z,100606.19
2022-09-10T23:01:36.535Z,100609.38
2022-09-10T23:04:05.537Z,100609.72
2022-09-10T23:06:35.366Z,100604.91
2022-09-10T23:09:10.800Z,100604.91
2022-09-10T23:11:39.119Z,100592.53
2022-09-10T23:14:10.372Z,100604.50
2022-09-10T23:16:39.864Z,100599.97
2022-09-10T23:19:11.792Z,100611.25
2022-09-10T23:21:44.496Z,100613.91
2022-09-10T23:24:14.396Z,100591.63
2022-09-10T23:26:42.884Z,100592.63
2022-09-10T23:29:10.971Z,100599.09
2022-09-10T23:31:40.670Z,100599.97
2022-09-10T23:34:12.503Z,100600.78
2022-09-10T23:36:42.287Z,100599.09
2022-09-10T23:39:15.111Z,100600.78
2022-09-10T23:41:42.840Z,100594.09
2022-09-10T23:44:10.353Z,100598.06
2022-09-10T23:46:37.931Z,100591.50
2022-09-10T23:49:05.683Z,100593.06
2022-09-10T23:51:33.780Z,100612.81
2022-09-10T23:54:01.172Z,100605.84
2022-09-10T23:56:29.090Z,100604.69
2022-09-10T23:58:59.271Z,100599.44
